createdAt,value
2022-08-05T00:00:16.094Z,64.59
2022-08-05T00:02:50.914Z,64.73
2022-08-05T00:06:01.666Z,64.94
2022-08-05T00:08:34.229Z,64.88
2022-08-05T00:11:00.582Z,65.07
2022-08-05T00:13:39.125Z,65.13
2022-08-05T00:16:09.541Z,65.35
2022-08-05T00:18:39.764Z,65.41
2022-08-05T00:21:08.242Z,65.28
2022-08-05T00:23:46.384Z,65.16
2022-08-05T00:26:20.548Z,65.15
2022-08-05T00:28:47.214Z,65.25
2022-08-05T00:31:16.108Z,65.01
2022-08-05T00:34:53.219Z,65.14
2022-08-05T00:37:12.405Z,64.99
2022-08-05T00:39:16.142Z,65.33
2022-08-05T00:41:55.337Z,65.03
2022-08-05T00:44:30.446Z,65.06
2022-08-05T00:47:02.196Z,65.19
2022-08-05T00:49:51.506Z,65.22
2022-08-05T00:52:28.384Z,65.26
2022-08-05T00:54:55.969Z,65.12
2022-08-05T00:57:25.204Z,65.51
2022-08-05T00:59:58.382Z,65.59
2022-08-05T01:02:25.088Z,65.49
2022-08-05T01:04:51.818Z,65.53
2022-08-05T01:07:18.551Z,65.79
2022-08-05T01:09:45.282Z,65.58
2022-08-05T01:12:25.086Z,65.53
2022-08-05T01:15:35.037Z,65.32
2022-08-05T01:18:05.182Z,65.76
2022-08-05T01:21:01.842Z,66.36
2022-08-05T01:23:57.957Z,66.10
2022-08-05T01:26:50.904Z,66.19
2022-08-05T01:29:24.692Z,65.99
2022-08-05T01:31:55.104Z,66.23
2022-08-05T01:34:28.327Z,66.45
2022-08-05T01:37:11.049Z,66.65
2022-08-05T01:39:58.748Z,66.98
2022-08-05T01:42:27.854Z,67.36
2022-08-05T01:44:59.209Z,67.42
2022-08-05T01:47:30.557Z,67.69
2022-08-05T01:50:15.240Z,68.09
2022-08-05T01:52:49.836Z,68.10
2022-08-05T01:55:20.364Z,68.34
2022-08-05T01:58:15.376Z,68.78
2022-08-05T02:00:38.559Z,68.91
2022-08-05T02:03:24.066Z,68.63
2022-08-05T02:05:53.693Z,69.00
2022-08-05T02:08:30.904Z,68.88
2022-08-05T02:11:12.033Z,69.55
2022-08-05T02:13:53.111Z,69.39
2022-08-05T02:16:54.585Z,69.63
2022-08-05T02:19:27.370Z,69.95
2022-08-05T02:22:27.007Z,70.62
2022-08-05T02:25:12.625Z,70.40
2022-08-05T02:27:58.281Z,69.62
2022-08-05T02:30:35.401Z,68.60
2022-08-05T02:33:03.532Z,67.77
2022-08-05T02:35:38.587Z,67.13
2022-08-05T02:38:19.377Z,66.80
2022-08-05T02:40:46.930Z,66.42
2022-08-05T02:43:16.977Z,66.20
2022-08-05T02:45:52.382Z,66.16
2022-08-05T02:48:29.112Z,65.82
2022-08-05T02:51:00.120Z,65.30
2022-08-05T02:53:39.191Z,64.66
2022-08-05T02:56:09.462Z,64.22
2022-08-05T02:58:43.528Z,63.70
2022-08-05T03:01:20.563Z,62.58
2022-08-05T03:04:03.383Z,61.80
2022-08-05T03:06:55.668Z,61.42
2022-08-05T03:09:27.212Z,60.97
2022-08-05T03:12:05.220Z,61.43
2022-08-05T03:14:31.851Z,61.77
2022-08-05T03:16:59.153Z,61.49
2022-08-05T03:19:33.967Z,61.13
2022-08-05T03:22:03.242Z,60.97
2022-08-05T03:24:32.343Z,61.18
2022-08-05T03:27:00.807Z,61.19
2022-08-05T03:29:45.256Z,61.36
2022-08-05T03:32:19.577Z,61.31
2022-08-05T03:34:50.996Z,61.55
2022-08-05T03:37:19.161Z,61.73
2022-08-05T03:39:58.746Z,61.95
2022-08-05T03:42:27.044Z,62.25
2022-08-05T03:44:55.773Z,62.75
2022-08-05T03:47:24.143Z,63.05
2022-08-05T03:49:52.474Z,63.49
2022-08-05T03:52:36.992Z,64.07
2022-08-05T03:56:05.391Z,64.27
2022-08-05T03:58:12.598Z,64.89
2022-08-05T04:00:41.972Z,64.93
2022-08-05T04:03:26.670Z,65.03
2022-08-05T04:05:57.924Z,65.01
2022-08-05T04:08:35.328Z,65.48
2022-08-05T04:11:05.193Z,65.23
2022-08-05T04:13:49.676Z,65.18
2022-08-05T04:16:24.191Z,64.82
2022-08-05T04:18:54.489Z,64.88
2022-08-05T04:22:05.711Z,64.76
2022-08-05T04:24:18.754Z,64.34
2022-08-05T04:26:46.971Z,64.54
2022-08-05T04:29:14.299Z,64.70
2022-08-05T04:31:41.290Z,64.47
2022-08-05T04:34:31.977Z,64.42
2022-08-05T04:36:56.506Z,64.34
2022-08-05T04:39:23.552Z,64.48
2022-08-05T04:41:51.395Z,64.68
2022-08-05T04:44:29.085Z,64.85
2022-08-05T04:46:58.905Z,64.57
2022-08-05T04:50:00.956Z,64.59
2022-08-05T04:52:13.697Z,64.97
2022-08-05T04:54:42.028Z,64.65
2022-08-05T04:57:08.685Z,64.45
2022-08-05T04:59:40.638Z,64.68
2022-08-05T05:02:37.507Z,64.54
2022-08-05T05:05:02.281Z,64.72
2022-08-05T05:07:31.929Z,65.13
2022-08-05T05:09:59.708Z,64.96
2022-08-05T05:12:29.317Z,65.02
2022-08-05T05:14:55.995Z,65.29
2022-08-05T05:17:24.553Z,65.77
2022-08-05T05:19:56.615Z,65.95
2022-08-05T05:22:26.724Z,66.11
2022-08-05T05:24:59.817Z,66.27
2022-08-05T05:27:41.506Z,66.17
2022-08-05T05:30:28.713Z,66.31
2022-08-05T05:33:00.782Z,66.14
2022-08-05T05:35:37.698Z,66.42
2022-08-05T05:38:09.242Z,66.15
2022-08-05T05:40:43.837Z,66.14
2022-08-05T05:43:22.302Z,66.48
2022-08-05T05:46:04.007Z,66.46
2022-08-05T05:48:32.176Z,65.85
2022-08-05T05:51:15.106Z,65.66
2022-08-05T05:53:53.992Z,65.54
2022-08-05T05:56:32.965Z,65.40
2022-08-05T05:59:07.001Z,65.29
2022-08-05T06:01:37.337Z,65.11
2022-08-05T06:04:14.541Z,65.07
2022-08-05T06:06:42.986Z,65.37
2022-08-05T06:09:17.710Z,65.62
2022-08-05T06:12:01.852Z,65.21
2022-08-05T06:14:33.395Z,65.64
2022-08-05T06:17:22.388Z,65.92
2022-08-05T06:19:56.621Z,65.60
2022-08-05T06:22:33.313Z,65.44
2022-08-05T06:25:01.111Z,64.62
2022-08-05T06:28:11.537Z,63.11
2022-08-05T06:30:34.422Z,63.47
2022-08-05T06:33:01.468Z,63.73
2022-08-05T06:36:08.056Z,63.87
2022-08-05T06:38:14.930Z,63.13
2022-08-05T06:40:44.697Z,61.92
2022-08-05T06:43:58.903Z,61.24
2022-08-05T06:46:04.007Z,60.59
2022-08-05T06:48:55.427Z,59.83
2022-08-05T06:51:29.543Z,58.78
2022-08-05T06:53:59.026Z,58.29
2022-08-05T06:56:27.029Z,57.76
2022-08-05T06:58:54.916Z,56.92
2022-08-05T07:01:21.731Z,56.85
2022-08-05T07:03:49.742Z,56.15
2022-08-05T07:06:17.510Z,55.87
2022-08-05T07:08:52.049Z,55.17
2022-08-05T07:11:25.259Z,54.35
2022-08-05T07:14:20.319Z,53.50
2022-08-05T07:17:59.946Z,52.36
2022-08-05T07:20:31.427Z,51.45
2022-08-05T07:22:33.785Z,49.86
2022-08-05T07:25:22.717Z,50.04
2022-08-05T07:27:58.346Z,48.43
2022-08-05T07:30:34.771Z,49.67
2022-08-05T07:33:10.408Z,50.86
2022-08-05T07:36:02.248Z,52.27
2022-08-05T07:38:33.910Z,52.58
2022-08-05T07:42:07.277Z,53.40
2022-08-05T07:43:58.285Z,53.27
2022-08-05T07:46:30.962Z,52.16
2022-08-05T07:49:01.797Z,51.22
2022-08-05T07:51:37.439Z,50.86
2022-08-05T07:54:08.484Z,50.25
2022-08-05T07:57:00.123Z,48.75
2022-08-05T07:59:38.808Z,48.68
2022-08-05T08:02:17.013Z,48.50
2022-08-05T08:04:49.271Z,47.95
2022-08-05T08:07:22.236Z,47.20
2022-08-05T08:09:52.102Z,46.31
2022-08-05T08:12:27.377Z,46.08
2022-08-05T08:15:02.468Z,45.48
2022-08-05T08:17:31.574Z,45.64
2022-08-05T08:20:42.675Z,43.75
2022-08-05T08:22:55.605Z,43.37
2022-08-05T08:25:26.437Z,43.28
2022-08-05T08:27:54.999Z,42.69
2022-08-05T08:30:32.803Z,42.17
2022-08-05T08:33:13.719Z,41.74
2022-08-05T08:35:52.771Z,41.56
2022-08-05T08:38:35.876Z,41.54
2022-08-05T08:41:10.156Z,41.38
2022-08-05T08:45:19.346Z,41.56
2022-08-05T08:46:31.243Z,41.50
2022-08-05T08:49:08.289Z,41.63
2022-08-05T08:52:05.796Z,40.42
2022-08-05T08:54:42.132Z,40.85
2022-08-05T08:57:11.211Z,40.84
2022-08-05T08:59:38.627Z,40.03
2022-08-05T09:02:09.034Z,40.09
2022-08-05T09:04:57.922Z,40.08
2022-08-05T09:07:28.938Z,40.14
2022-08-05T09:10:06.641Z,39.90
2022-08-05T09:12:34.839Z,37.78
2022-08-05T09:15:06.369Z,37.22
2022-08-05T09:17:41.354Z,36.42
2022-08-05T09:20:11.667Z,36.07
2022-08-05T09:23:05.063Z,36.74
2022-08-05T09:26:02.841Z,36.49
2022-08-05T09:28:24.449Z,35.39
2022-08-05T09:31:22.230Z,34.13
2022-08-05T09:34:10.310Z,34.21
2022-08-05T09:36:55.228Z,34.52
2022-08-05T09:39:39.441Z,34.94
2022-08-05T09:42:23.532Z,34.25
2022-08-05T09:44:56.369Z,34.28
2022-08-05T09:47:26.070Z,33.95
2022-08-05T09:50:01.003Z,32.99
2022-08-05T09:52:34.505Z,33.21
2022-08-05T09:55:55.107Z,32.99
2022-08-05T09:57:49.368Z,33.08
2022-08-05T10:00:26.082Z,32.67
2022-08-05T10:02:58.561Z,32.04
2022-08-05T10:05:33.012Z,31.94
2022-08-05T10:08:35.913Z,31.80
2022-08-05T10:10:54.144Z,31.29
2022-08-05T10:13:47.476Z,32.68
2022-08-05T10:16:41.721Z,33.27
2022-08-05T10:19:23.836Z,34.39
2022-08-05T10:21:59.152Z,34.86
2022-08-05T10:24:27.163Z,35.77
2022-08-05T10:26:56.386Z,36.18
2022-08-05T10:30:06.419Z,36.71
2022-08-05T10:32:52.512Z,36.87
2022-08-05T10:35:03.948Z,37.43
2022-08-05T10:37:40.233Z,37.55
2022-08-05T10:40:52.085Z,36.97
2022-08-05T10:43:57.488Z,37.54
2022-08-05T10:46:54.354Z,37.18
2022-08-05T10:49:26.915Z,37.06
2022-08-05T10:52:03.311Z,37.17
2022-08-05T10:55:02.141Z,38.10
2022-08-05T10:57:32.446Z,36.89
2022-08-05T11:00:20.674Z,35.00
2022-08-05T11:03:23.312Z,33.93
2022-08-05T11:06:15.692Z,34.63
2022-08-05T11:09:16.412Z,34.65
2022-08-05T11:11:53.478Z,33.84
2022-08-05T11:17:57.948Z,33.83
2022-08-05T11:20:41.864Z,31.94
2022-08-05T11:24:02.832Z,31.40
2022-08-05T11:26:28.129Z,31.45
2022-08-05T11:29:12.245Z,31.83
2022-08-05T11:31:57.004Z,31.23
2022-08-05T11:34:51.303Z,30.99
2022-08-05T11:38:37.442Z,29.37
2022-08-05T11:41:13.929Z,30.00
2022-08-05T11:44:05.544Z,30.10
2022-08-05T11:46:34.972Z,29.03
2022-08-05T11:49:03.168Z,29.46
2022-08-05T11:51:44.707Z,29.68
2022-08-05T11:54:32.829Z,29.64
2022-08-05T11:57:08.338Z,28.99
2022-08-05T11:59:50.842Z,28.64
2022-08-05T12:02:30.334Z,28.52
2022-08-05T12:05:07.710Z,28.63
2022-08-05T12:08:08.963Z,29.21
2022-08-05T12:10:43.110Z,28.47
2022-08-05T12:13:27.899Z,29.50
2022-08-05T12:16:19.425Z,29.30
2022-08-05T12:18:52.766Z,29.12
2022-08-05T12:21:30.021Z,28.99
2022-08-05T12:24:08.941Z,28.67
2022-08-05T12:26:39.670Z,28.55
2022-08-05T12:29:22.542Z,28.32
2022-08-05T12:31:58.585Z,28.42
2022-08-05T12:34:31.614Z,28.79
2022-08-05T12:37:03.482Z,29.03
2022-08-05T12:39:37.440Z,29.07
2022-08-05T12:42:14.280Z,28.78
2022-08-05T12:44:43.204Z,29.43
2022-08-05T12:47:12.738Z,29.37
2022-08-05T12:50:04.097Z,30.02
2022-08-05T12:52:39.468Z,28.51
2022-08-05T12:55:22.174Z,29.13
2022-08-05T12:58:52.568Z,29.31
2022-08-05T13:02:01.592Z,29.06
2022-08-05T13:03:32.564Z,28.01
2022-08-05T13:06:01.067Z,28.18
2022-08-05T13:08:32.379Z,27.97
2022-08-05T13:11:02.659Z,27.92
2022-08-05T13:14:04.904Z,27.32
2022-08-05T13:16:20.326Z,28.68
2022-08-05T13:18:51.618Z,28.22
2022-08-05T13:21:18.294Z,28.39
2022-08-05T13:23:50.940Z,28.32
2022-08-05T13:26:21.810Z,28.12
2022-08-05T13:28:56.743Z,28.54
2022-08-05T13:32:04.569Z,28.65
2022-08-05T13:34:23.364Z,28.50
2022-08-05T13:36:53.981Z,28.14
2022-08-05T13:39:24.320Z,28.87
2022-08-05T13:42:14.596Z,28.59
2022-08-05T13:44:46.194Z,28.08
2022-08-05T13:48:08.252Z,28.18
2022-08-05T13:50:06.584Z,29.56
2022-08-05T13:52:36.395Z,29.29
2022-08-05T13:55:07.595Z,29.14
2022-08-05T13:57:51.355Z,29.66
2022-08-05T14:00:27.233Z,28.91
2022-08-05T14:02:57.787Z,29.66
2022-08-05T14:05:48.046Z,30.10
2022-08-05T14:08:20.441Z,29.89
2022-08-05T14:10:48.826Z,30.36
2022-08-05T14:13:16.167Z,29.93
2022-08-05T14:16:07.195Z,29.28
2022-08-05T14:18:30.151Z,30.20
2022-08-05T14:20:56.790Z,30.13
2022-08-05T14:23:25.707Z,29.60
2022-08-05T14:25:58.650Z,29.55
2022-08-05T14:28:30.433Z,30.08
2022-08-05T14:30:58.872Z,29.61
2022-08-05T14:33:25.704Z,29.81
2022-08-05T14:35:54.277Z,29.98
2022-08-05T14:38:31.651Z,30.32
2022-08-05T14:41:00.342Z,29.91
2022-08-05T14:43:59.272Z,30.12
2022-08-05T14:46:13.962Z,30.70
2022-08-05T14:48:40.777Z,31.49
2022-08-05T14:51:08.556Z,32.36
2022-08-05T14:53:44.085Z,32.12
2022-08-05T14:56:11.995Z,32.55
2022-08-05T14:58:47.546Z,32.46
2022-08-05T15:01:24.502Z,32.81
2022-08-05T15:04:11.558Z,33.29
2022-08-05T15:06:38.869Z,33.17
2022-08-05T15:09:07.789Z,33.77
2022-08-05T15:11:50.912Z,33.83
2022-08-05T15:14:33.314Z,33.90
2022-08-05T15:17:03.931Z,32.53
2022-08-05T15:19:31.673Z,33.34
2022-08-05T15:22:01.316Z,33.52
2022-08-05T15:24:29.043Z,34.31
2022-08-05T15:26:57.046Z,33.98
2022-08-05T15:29:29.812Z,34.55
2022-08-05T15:31:57.733Z,35.23
2022-08-05T15:34:31.844Z,35.26
2022-08-05T15:37:02.325Z,35.81
2022-08-05T15:40:59.732Z,36.27
2022-08-05T15:42:54.664Z,36.39
2022-08-05T15:45:06.163Z,36.37
2022-08-05T15:47:35.784Z,36.46
2022-08-05T15:50:03.654Z,36.55
2022-08-05T15:52:52.599Z,37.03
2022-08-05T15:55:19.500Z,37.03
2022-08-05T15:57:52.383Z,37.08
2022-08-05T16:00:32.721Z,37.01
2022-08-05T16:03:06.065Z,37.17
2022-08-05T16:05:32.768Z,37.64
2022-08-05T16:08:00.044Z,37.46
2022-08-05T16:10:27.171Z,37.83
2022-08-05T16:12:56.053Z,37.46
2022-08-05T16:15:23.573Z,37.93
2022-08-05T16:17:57.928Z,37.54
2022-08-05T16:20:25.883Z,38.58
2022-08-05T16:22:54.782Z,39.24
2022-08-05T16:25:33.853Z,38.76
2022-08-05T16:28:06.487Z,38.92
2022-08-05T16:30:36.885Z,38.59
2022-08-05T16:33:03.716Z,39.00
2022-08-05T16:35:32.090Z,38.66
2022-08-05T16:38:13.615Z,38.62
2022-08-05T16:40:47.665Z,38.54
2022-08-05T16:43:19.031Z,38.46
2022-08-05T16:46:04.915Z,38.87
2022-08-05T16:48:35.086Z,38.59
2022-08-05T16:51:03.952Z,38.98
2022-08-05T16:54:04.019Z,38.80
2022-08-05T16:56:26.613Z,39.00
2022-08-05T16:58:54.096Z,38.95
2022-08-05T17:01:20.831Z,39.34
2022-08-05T17:03:47.602Z,39.47
2022-08-05T17:06:16.354Z,39.87
2022-08-05T17:08:53.061Z,39.77
2022-08-05T17:11:25.648Z,40.23
2022-08-05T17:14:05.320Z,40.29
2022-08-05T17:16:37.738Z,40.04
2022-08-05T17:19:07.887Z,40.12
2022-08-05T17:21:37.763Z,40.42
2022-08-05T17:24:28.114Z,40.44
2022-08-05T17:26:56.749Z,40.21
2022-08-05T17:29:33.607Z,40.63
2022-08-05T17:32:11.304Z,40.70
2022-08-05T17:34:39.135Z,41.51
2022-08-05T17:37:37.710Z,42.18
2022-08-05T17:39:55.814Z,43.30
2022-08-05T17:42:25.833Z,44.02
2022-08-05T17:44:56.778Z,44.86
2022-08-05T17:47:23.680Z,45.13
2022-08-05T17:50:04.146Z,45.86
2022-08-05T17:52:52.606Z,46.32
2022-08-05T17:55:22.869Z,46.77
2022-08-05T17:58:02.208Z,46.77
2022-08-05T18:00:30.143Z,47.07
2022-08-05T18:02:57.189Z,46.93
2022-08-05T18:05:28.095Z,47.40
2022-08-05T18:07:56.766Z,47.38
2022-08-05T18:10:23.933Z,47.83
2022-08-05T18:12:51.180Z,48.16
2022-08-05T18:15:18.152Z,47.97
2022-08-05T18:18:00.709Z,48.64
2022-08-05T18:20:31.918Z,48.82
2022-08-05T18:23:09.335Z,48.62
2022-08-05T18:25:45.319Z,48.73
2022-08-05T18:28:17.656Z,49.00
2022-08-05T18:30:51.142Z,49.69
2022-08-05T18:33:22.984Z,49.92
2022-08-05T18:36:04.911Z,49.64
2022-08-05T18:38:36.155Z,49.97
2022-08-05T18:41:57.003Z,49.91
2022-08-05T18:43:52.145Z,50.03
2022-08-05T18:46:20.248Z,50.13
2022-08-05T18:48:51.840Z,50.50
2022-08-05T18:52:05.669Z,50.69
2022-08-05T18:54:30.926Z,50.95
2022-08-05T18:57:01.867Z,51.29
2022-08-05T18:59:42.730Z,51.37
2022-08-05T19:02:27.142Z,51.32
2022-08-05T19:05:02.338Z,51.96
2022-08-05T19:07:55.327Z,52.25
2022-08-05T19:10:26.644Z,52.07
2022-08-05T19:12:56.156Z,52.24
2022-08-05T19:16:00.064Z,51.98
2022-08-05T19:18:13.552Z,52.13
2022-08-05T19:20:48.980Z,52.55
2022-08-05T19:24:04.273Z,52.82
2022-08-05T19:26:03.329Z,52.55
2022-08-05T19:28:35.009Z,53.04
2022-08-05T19:31:05.749Z,53.01
2022-08-05T19:33:36.819Z,53.37
2022-08-05T19:36:09.046Z,53.97
2022-08-05T19:38:36.819Z,54.22
2022-08-05T19:41:08.925Z,54.70
2022-08-05T19:44:05.653Z,54.97
2022-08-05T19:46:30.228Z,55.59
2022-08-05T19:49:02.878Z,56.05
2022-08-05T19:52:04.226Z,56.23
2022-08-05T19:54:22.008Z,56.36
2022-08-05T19:56:55.249Z,56.47
2022-08-05T19:59:54.890Z,56.82
2022-08-05T20:02:08.677Z,57.24
2022-08-05T20:04:37.885Z,57.37
2022-08-05T20:07:13.056Z,58.00
2022-08-05T20:09:54.726Z,58.24
2022-08-05T20:12:24.528Z,58.91
2022-08-05T20:14:53.174Z,59.04
2022-08-05T20:17:23.970Z,59.29
2022-08-05T20:19:56.879Z,59.55
2022-08-05T20:22:26.926Z,59.99
2022-08-05T20:24:55.100Z,60.29
2022-08-05T20:27:26.677Z,60.57
2022-08-05T20:29:57.947Z,61.57
2022-08-05T20:32:26.572Z,61.34
2022-08-05T20:34:53.705Z,61.78
2022-08-05T20:38:04.989Z,62.29
2022-08-05T20:40:07.823Z,63.77
2022-08-05T20:42:34.732Z,64.13
2022-08-05T20:45:02.787Z,65.05
2022-08-05T20:47:31.688Z,65.20
2022-08-05T20:49:59.622Z,65.77
2022-08-05T20:52:29.023Z,66.05
2022-08-05T20:55:54.214Z,66.74
2022-08-05T20:57:44.492Z,66.89
2022-08-05T21:00:35.092Z,67.05
2022-08-05T21:03:06.169Z,66.81
2022-08-05T21:05:47.740Z,66.78
2022-08-05T21:08:21.354Z,66.61
2022-08-05T21:10:54.918Z,66.47
2022-08-05T21:13:37.837Z,66.10
2022-08-05T21:16:12.035Z,66.64
2022-08-05T21:18:38.752Z,66.95
2022-08-05T21:21:12.031Z,66.73
2022-08-05T21:23:39.050Z,66.26
2022-08-05T21:26:08.167Z,66.89
2022-08-05T21:28:40.263Z,66.94
2022-08-05T21:31:14.781Z,66.70
2022-08-05T21:33:43.339Z,66.82
2022-08-05T21:36:19.053Z,66.86
2022-08-05T21:38:54.845Z,67.04
2022-08-05T21:41:21.630Z,67.54
2022-08-05T21:43:50.951Z,67.55
2022-08-05T21:46:28.687Z,68.17
2022-08-05T21:48:56.730Z,68.99
2022-08-05T21:52:16.144Z,68.72
2022-08-05T21:54:10.498Z,69.05
2022-08-05T21:56:37.231Z,69.04
2022-08-05T21:59:23.845Z,70.56
2022-08-05T22:01:54.467Z,72.22
2022-08-05T22:04:25.472Z,74.58
2022-08-05T22:06:52.759Z,76.75
2022-08-05T22:09:21.582Z,78.19
2022-08-05T22:11:49.201Z,79.88
2022-08-05T22:14:32.955Z,82.41
2022-08-05T22:17:05.009Z,84.65
2022-08-05T22:20:00.467Z,87.37
2022-08-05T22:22:27.117Z,87.82
2022-08-05T22:25:21.373Z,88.29
2022-08-05T22:28:08.359Z,88.86
2022-08-05T22:30:44.329Z,89.51
2022-08-05T22:33:55.428Z,90.59
2022-08-05T22:36:11.490Z,90.51
2022-08-05T22:38:42.660Z,91.26
2022-08-05T22:41:10.307Z,91.47
2022-08-05T22:43:38.152Z,91.04
2022-08-05T22:46:12.021Z,91.09
2022-08-05T22:48:40.113Z,91.03
2022-08-05T22:51:08.081Z,92.04
2022-08-05T22:53:42.823Z,93.02
2022-08-05T22:56:17.005Z,92.81
2022-08-05T22:58:43.951Z,92.36
2022-08-05T23:01:10.647Z,92.17
2022-08-05T23:03:58.062Z,92.64
2022-08-05T23:06:26.398Z,92.12
2022-08-05T23:08:53.338Z,92.55
2022-08-05T23:11:21.141Z,93.68
2022-08-05T23:13:51.509Z,93.85
2022-08-05T23:16:38.575Z,93.50
2022-08-05T23:19:10.742Z,92.36
2022-08-05T23:21:52.464Z,92.60
2022-08-05T23:24:21.125Z,92.64
2022-08-05T23:26:49.180Z,91.53
2022-08-05T23:29:16.443Z,91.42
2022-08-05T23:31:46.082Z,92.00
2022-08-05T23:34:16.229Z,92.56
2022-08-05T23:36:51.547Z,92.37
2022-08-05T23:39:32.062Z,91.40
2022-08-05T23:42:09.771Z,92.02
2022-08-05T23:44:41.331Z,91.98
2022-08-05T23:47:14.550Z,91.99
2022-08-05T23:49:46.268Z,92.56
2022-08-05T23:52:32.641Z,93.33
2022-08-05T23:55:09.254Z,93.96
2022-08-05T23:57:37.712Z,93.72
